Gulf Coast — C6UW7 — position and weather

sailwx.info

Track history (hours):
 
Tides and Currents Weather Stations Pressure Air Temp Water Temp Dewpoint Dewpoint Depression Visibility Wind Speed Wind Dir Waves Ship Positions

Gulf Coast

Last reported at 2017-Dec-16 08:45 UTC. Time now 2017-Dec-17 12:07 UTC.
Position N 38°33' E 121°60'.

Length 228 m; draft 10.5 m.

Type: Tanker. MMSI: 309977000.

Date/timePositionNaut miles runAvg speedWind from/ knotsBaromVisibWave heightAir tempDewpointWater temp
2017-Dec-16 08:45N 38°33' E 121°60'312.6
2017-Dec-16 08:29N 38°36' E 121°59'812.6
2017-Dec-16 07:50N 38°44' E 121°58'412.5
2017-Dec-16 07:30N 38°48' E 121°57'4 0.2
2017-Dec-15 04:27N 38°50' E 122°03'  
2017-Dec-11 09:37N 38°35' E 121°43'211.9
2017-Dec-11 09:29N 38°36' E 121°44'611.9
2017-Dec-11 09:00N 38°42' E 121°45'612.0
2017-Dec-11 08:30N 38°48' E 121°45'10 8.0
2017-Dec-11 07:18N 38°57' E 121°41'1 4.4
2017-Dec-11 07:00N 38°58' E 121°39'  
2017-Dec-08 04:27N 38°52' E 121°48'  
Track history (hours):
 
Tides and Currents Weather Stations Pressure Air Temp Water Temp Dewpoint Dewpoint Depression Visibility Wind Speed Wind Dir Waves Ship Positions

Gulf Coast

Last reported at 2017-Dec-16 08:45 UTC. Time now 2017-Dec-17 12:07 UTC.
Position N 38°33' E 121°60'.

Length 228 m; draft 10.5 m.

Type: Tanker. MMSI: 309977000.

Date/timePositionNaut miles runAvg speedWind from/ knotsBaromVisibWave heightAir tempDewpointWater temp
2017-Dec-16 08:45N 38°33' E 121°60'312.6
2017-Dec-16 08:29N 38°36' E 121°59'812.6
2017-Dec-16 07:50N 38°44' E 121°58'412.5
2017-Dec-16 07:30N 38°48' E 121°57'4 0.2
2017-Dec-15 04:27N 38°50' E 122°03'  
2017-Dec-11 09:37N 38°35' E 121°43'211.9
2017-Dec-11 09:29N 38°36' E 121°44'611.9
2017-Dec-11 09:00N 38°42' E 121°45'612.0
2017-Dec-11 08:30N 38°48' E 121°45'10 8.0
2017-Dec-11 07:18N 38°57' E 121°41'1 4.4
2017-Dec-11 07:00N 38°58' E 121°39'  
2017-Dec-08 04:27N 38°52' E 121°48'  

Dump ship's entire track history